Strona główna
METAR-TAF:

METAR-TAF

Lotnisko :

Almagro, Hiszpania

Szerokość geograficzna: 38-57-11N, Długość geograficzna: 3-44-29W, wysokość: 629 m

Aktualna obserwacja pogody

Raport powstał 31 minut temu, godzina 17:30 UTC
Wiatr 6 kt od południowo-południowy zachód, zmienny między południowy wschód i zachód
Temperatura 35°C
Wilgotność 22%
Ciśnienie 1008 hPa
Widzialność 10 km lub więcej
Rozproszone chmury na wysokości 4000 ft

METAR: LEAO 251730Z 20006KT 140V260 9999 SCT040 35/10 Q1008

czas: 20:01 (18:01 UTC)

Prognoza

Raport powstał 4 godziny i 1 minut temu, godzina 14:00 UTC
Prognoza ważna od 25 godzina 15 UTC do 26 godzina 15 UTC
Wiatr 5 kt z kierunków zmiennych
Widzialność 10 km lub więcej
Brak chmur poniżej 1500 m i brak chmur cumulonimbus

TAF: LEAO 251400Z 2515/2615 VRB05KT CAVOK TX32/2614Z TN19/2605Z

Obserwacja i prognoza pogody dla ponad 4000 lotnisk (raport METAR i TAF).

Dostępne stacje oznaczono żółtymi i czerwonymi punktami na mapie.

Najedź kursorem aby zobaczyć nazwę stacji.

Kliknij aby zobaczyć obserwacje i prognozy pogody.

Aby zmienić mapę: kliknij na zielony przycisk z czarnym krzyżykiem, aby powiększyć; na zielony przycisk z myślnikiem, aby pomniejszyć; na zielone strzałki, aby przejść do map sąsiednich.


METAR-TAF: